Terminal Aerodrome Forecast
Issued by NWS

Home | Current Version | Previous Version | Text Only | Print | Product List | Glossary On
Versions: 1 2 3 4 5 6 7 8 9 10 11 12 13 14 15 16 17 18 19 20 21 22 23 24 25 26 27 28 29 30 31 32 33 34 35 36 37 38 39 40 41 42 43 44 45 46 47 48 49 50
810
FTUS44 KLZK 131557 AAD
TAFLLQ
TAF AMD
KLLQ 131557Z 1316/1412 VRB03KT P6SM BKN003 OVC015
     FM131800 19004KT P6SM OVC050
     FM140000 24004KT P6SM OVC050=

USA.gov is the U.S. government's official web portal to all federal, state and local government web resources and services.